Time;durP1;ratioP1;P1;durP2;ratioP2;P2;SDS_P1;SDS_P2;PMS_P1;PMS_P2;Temp;Humidity;BMP_temperature;BMP_pressure;BME280_temperature;BME280_humidity;BME280_pressure;Samples;Min_cycle;Max_cycle;Signal;HPM_P1;HPM_P2
2022/05/29 00:02:25;;;;;;;18.17;8.45;;;;;;;20.87;81.98;94678.78;5068170;28;20201;-74
2022/05/29 00:04:52;;;;;;;15.00;9.25;;;;;;;20.97;82.07;94675.34;5068653;28;20197;-74
2022/05/29 00:07:20;;;;;;;16.10;8.52;;;;;;;20.42;85.28;94626.47;5068292;28;20636;-74
2022/05/29 00:09:49;;;;;;;14.98;8.85;;;;;;;19.56;91.72;94586.66;5068664;28;20202;-75
2022/05/29 00:12:17;;;;;;;11.07;9.32;;;;;;;19.17;92.99;94599.94;5068041;28;20224;-75
2022/05/29 00:14:45;;;;;;;20.17;9.13;;;;;;;19.31;92.64;94613.44;5067810;28;20202;-75
2022/05/29 00:17:12;;;;;;;13.82;9.00;;;;;;;19.18;92.61;94609.31;5067605;28;20202;-73
2022/05/29 00:19:39;;;;;;;11.63;8.02;;;;;;;19.44;92.03;94625.41;5068402;28;20251;-74
2022/05/29 00:22:06;;;;;;;14.70;8.50;;;;;;;19.54;90.89;94624.66;5067811;28;20202;-74
2022/05/29 00:24:34;;;;;;;17.50;8.68;;;;;;;19.47;90.54;94618.28;5067719;28;20585;-75
2022/05/29 00:27:01;;;;;;;22.98;9.60;;;;;;;19.14;91.47;94621.59;5067628;28;20448;-75
2022/05/29 00:29:28;;;;;;;17.77;8.95;;;;;;;19.01;92.44;94606.25;5067994;28;20270;-76
2022/05/29 00:31:55;;;;;;;19.38;10.00;;;;;;;18.45;96.73;94588.91;5067692;28;20291;-75
2022/05/29 00:34:22;;;;;;;15.75;9.25;;;;;;;18.41;97.88;94584.91;5067718;28;20218;-74
2022/05/29 00:36:49;;;;;;;13.75;9.77;;;;;;;18.08;100.00;94576.09;5067318;28;20206;-75
2022/05/29 00:39:17;;;;;;;17.05;9.80;;;;;;;18.14;99.13;94564.56;5068024;28;20247;-75
2022/05/29 00:41:46;;;;;;;19.73;8.35;;;;;;;18.17;99.59;94562.59;5067126;28;20202;-75
2022/05/29 00:44:16;;;;;;;19.42;9.90;;;;;;;18.19;99.31;94560.72;5067582;28;20228;-75
2022/05/29 00:46:46;;;;;;;28.67;8.60;;;;;;;18.33;97.28;94509.09;5066921;28;20204;-75
2022/05/29 00:49:13;;;;;;;16.85;9.13;;;;;;;18.21;99.19;94489.44;5067145;28;20255;-75
2022/05/29 00:51:44;;;;;;;12.73;9.10;;;;;;;17.99;99.93;94505.59;5066692;28;20354;-74
2022/05/29 00:54:13;;;;;;;18.55;8.73;;;;;;;17.98;99.33;94564.84;5066845;28;20628;-76
2022/05/29 00:56:40;;;;;;;14.55;8.25;;;;;;;17.94;100.00;94599.38;5066522;28;20262;-75
2022/05/29 00:59:15;;;;;;;12.85;8.77;;;;;;;17.81;100.00;94585.75;5067093;28;20254;-75
2022/05/29 01:01:42;;;;;;;18.35;9.82;;;;;;;17.63;100.00;94518.41;5066166;28;20660;-76
2022/05/29 01:04:09;;;;;;;12.32;9.38;;;;;;;17.56;100.00;94525.75;5067555;28;20277;-74
2022/05/29 01:06:36;;;;;;;17.35;10.48;;;;;;;17.52;100.00;94534.59;5067041;28;20209;-76
2022/05/29 01:09:05;;;;;;;15.02;9.88;;;;;;;17.49;100.00;94516.81;5067331;28;20193;-75
2022/05/29 01:11:44;;;;;;;11.35;9.45;;;;;;;17.37;100.00;94511.69;5065666;28;20217;-75
2022/05/29 01:14:21;;;;;;;13.52;9.77;;;;;;;17.31;100.00;94531.75;5064987;28;20190;-76
2022/05/29 01:17:08;;;;;;;14.57;9.85;;;;;;;17.36;100.00;94564.81;5064520;28;20205;-75
2022/05/29 01:19:53;;;;;;;14.10;10.52;;;;;;;17.17;100.00;94519.00;5065758;28;20677;-75
2022/05/29 01:22:35;;;;;;;22.45;11.35;;;;;;;17.29;100.00;94514.81;5064858;28;20232;-75
2022/05/29 01:25:45;;;;;;;17.95;10.13;;;;;;;17.35;100.00;94540.88;5064490;28;20310;-75
2022/05/29 01:28:25;;;;;;;17.00;10.85;;;;;;;17.56;100.00;94543.75;5066570;28;20664;-76
2022/05/29 01:30:59;;;;;;;18.65;11.00;;;;;;;17.47;100.00;94534.09;5066423;28;20197;-75
2022/05/29 01:33:36;;;;;;;21.48;12.20;;;;;;;17.41;100.00;94511.38;5066448;28;20875;-76
2022/05/29 01:36:10;;;;;;;14.75;10.73;;;;;;;17.57;100.00;94500.88;5065493;28;20670;-76
2022/05/29 01:38:42;;;;;;;21.92;11.10;;;;;;;17.65;100.00;94507.13;5067059;28;20725;-75
2022/05/29 01:41:13;;;;;;;13.43;10.02;;;;;;;17.54;100.00;94512.19;5066198;28;20202;-75
2022/05/29 01:43:45;;;;;;;17.55;10.75;;;;;;;17.74;100.00;94510.81;5066284;28;20201;-75
2022/05/29 01:46:17;;;;;;;19.92;9.60;;;;;;;17.93;100.00;94508.59;5065480;28;20193;-74
2022/05/29 01:48:52;;;;;;;11.25;9.88;;;;;;;18.19;99.61;94513.63;5066752;28;20251;-74
2022/05/29 01:51:22;;;;;;;11.75;9.25;;;;;;;18.10;98.96;94516.84;5066463;28;20209;-74
2022/05/29 01:53:53;;;;;;;14.13;9.27;;;;;;;18.01;99.98;94511.44;5065770;28;20218;-74
2022/05/29 01:56:24;;;;;;;16.60;10.15;;;;;;;18.33;98.88;94514.25;5065500;28;20206;-75
2022/05/29 01:58:58;;;;;;;16.92;10.35;;;;;;;18.23;97.23;94508.16;5067059;28;20797;-75
2022/05/29 02:01:30;;;;;;;17.13;12.13;;;;;;;18.22;97.58;94515.97;5065890;28;20193;-75
2022/05/29 02:03:59;;;;;;;16.63;10.90;;;;;;;18.35;96.45;94499.53;5067022;28;20334;-74
2022/05/29 02:07:47;;;;;;;20.05;11.60;;;;;;;18.66;94.84;94481.88;5064313;28;20747;-74
2022/05/29 02:09:23;;;;;;;19.27;10.85;;;;;;;18.96;93.21;94479.59;5066540;28;20202;-74
2022/05/29 02:11:53;;;;;;;29.48;14.95;;;;;;;19.09;92.67;94478.63;5065127;28;20206;-74
2022/05/29 02:14:26;;;;;;;24.58;13.75;;;;;;;19.06;93.47;94484.03;5066485;28;20213;-75
2022/05/29 02:16:57;;;;;;;28.90;16.15;;;;;;;18.45;97.62;94494.53;5065221;28;20193;-75
2022/05/29 02:19:29;;;;;;;26.63;16.77;;;;;;;18.13;99.72;94472.91;5066194;28;20738;-74
2022/05/29 02:21:59;;;;;;;23.02;14.82;;;;;;;17.97;99.05;94474.03;5065201;28;20734;-76
2022/05/29 02:24:33;;;;;;;27.02;14.10;;;;;;;17.89;99.59;94468.59;5065939;28;20639;-74
2022/05/29 02:27:07;;;;;;;16.98;10.65;;;;;;;17.80;98.36;94460.75;5065499;28;20201;-74
2022/05/29 02:29:36;;;;;;;14.48;9.75;;;;;;;17.52;96.97;94462.66;5065757;28;20292;-74
2022/05/29 02:32:16;;;;;;;15.05;7.75;;;;;;;17.59;97.23;94466.41;5064889;28;20205;-73
2022/05/29 02:34:53;;;;;;;10.48;7.35;;;;;;;17.29;97.58;94461.69;5065812;28;20221;-73
2022/05/29 02:37:28;;;;;;;13.35;6.70;;;;;;;17.23;98.39;94458.72;5063976;28;20696;-71
2022/05/29 02:40:02;;;;;;;11.35;6.82;;;;;;;17.46;96.99;94459.69;5065696;28;20189;-73
2022/05/29 02:42:37;;;;;;;6.82;6.18;;;;;;;17.36;96.06;94456.94;5065278;28;20269;-73
2022/05/29 02:45:15;;;;;;;12.27;7.38;;;;;;;17.40;95.74;94468.63;5066004;28;20201;-73
2022/05/29 02:47:52;;;;;;;19.88;6.10;;;;;;;17.49;94.08;94459.47;5064221;28;20234;-73
2022/05/29 02:50:27;;;;;;;17.27;5.82;;;;;;;17.39;93.55;94436.19;5065761;28;20289;-73
2022/05/29 02:52:57;;;;;;;11.30;6.53;;;;;;;17.53;95.22;94446.31;5065806;28;20743;-73
2022/05/29 02:55:25;;;;;;;12.40;6.68;;;;;;;17.39;96.97;94441.31;5065252;28;20212;-73
2022/05/29 02:57:55;;;;;;;9.05;6.82;;;;;;;17.36;97.13;94436.38;5064191;28;21718;-73
2022/05/29 03:00:24;;;;;;;8.85;6.25;;;;;;;17.46;97.95;94434.81;5064281;28;20202;-72
2022/05/29 03:03:10;;;;;;;13.68;7.10;;;;;;;17.17;99.46;94424.00;5062014;28;20201;-73
2022/05/29 03:05:47;;;;;;;15.05;7.20;;;;;;;17.27;99.83;94426.78;5063652;28;20703;-74
2022/05/29 03:08:36;;;;;;;15.45;8.93;;;;;;;17.02;100.00;94421.69;5063136;28;20198;-73
2022/05/29 03:11:11;;;;;;;20.13;8.30;;;;;;;17.07;100.00;94414.50;5063399;28;20197;-72
2022/05/29 03:13:48;;;;;;;17.88;9.50;;;;;;;17.04;100.00;94414.72;5064219;28;20325;-72
2022/05/29 03:16:27;;;;;;;16.95;9.07;;;;;;;17.02;100.00;94411.44;5064777;28;20339;-73
2022/05/29 03:19:02;;;;;;;14.73;8.80;;;;;;;17.15;100.00;94409.63;5063761;28;20282;-73
2022/05/29 03:21:38;;;;;;;11.02;7.78;;;;;;;16.97;100.00;94404.88;5062520;28;20241;-73
2022/05/29 03:24:14;;;;;;;12.82;9.27;;;;;;;17.17;100.00;94406.03;5066477;28;20282;-73
2022/05/29 03:26:46;;;;;;;10.57;6.43;;;;;;;17.29;100.00;94401.81;5067163;28;20189;-72
2022/05/29 03:29:18;;;;;;;13.88;8.30;;;;;;;17.16;100.00;94396.69;5067983;28;20206;-72
2022/05/29 03:31:46;;;;;;;11.68;7.20;;;;;;;16.89;100.00;94414.81;5066675;28;20197;-71
2022/05/29 03:34:15;;;;;;;13.27;7.30;;;;;;;16.82;100.00;94403.34;5068627;28;20720;-71
2022/05/29 03:36:45;;;;;;;10.40;7.15;;;;;;;16.91;99.89;94400.13;5068120;28;20201;-74
2022/05/29 03:39:12;;;;;;;10.13;6.68;;;;;;;16.61;100.00;94402.19;5069190;28;20267;-73
2022/05/29 03:41:43;;;;;;;9.40;7.47;;;;;;;16.61;100.00;94397.06;5068603;28;20198;-72
2022/05/29 03:44:10;;;;;;;15.18;7.20;;;;;;;16.51;100.00;94403.75;5069300;28;20210;-72
2022/05/29 03:46:39;;;;;;;7.13;6.40;;;;;;;16.40;100.00;94390.81;5067873;28;20692;-72
2022/05/29 03:49:07;;;;;;;12.18;6.97;;;;;;;16.47;100.00;94398.00;5068706;28;20813;-72
2022/05/29 03:51:34;;;;;;;18.77;7.35;;;;;;;16.90;99.99;94395.13;5067944;28;20201;-72
2022/05/29 03:54:02;;;;;;;11.73;7.10;;;;;;;16.70;99.91;94391.34;5068487;28;20237;-72
2022/05/29 03:56:29;;;;;;;12.68;6.35;;;;;;;17.06;98.77;94387.19;5068270;28;20225;-73
2022/05/29 03:58:56;;;;;;;9.80;5.93;;;;;;;17.26;97.24;94384.88;5068191;28;20843;-73
2022/05/29 04:01:23;;;;;;;8.75;5.97;;;;;;;17.11;97.00;94393.63;5068178;28;20205;-73
2022/05/29 04:03:53;;;;;;;12.88;6.63;;;;;;;17.00;98.37;94389.25;5068676;28;20251;-72
2022/05/29 04:06:21;;;;;;;8.57;5.50;;;;;;;16.91;98.40;94384.75;5068287;28;20275;-73
2022/05/29 04:14:16;;;;;;;13.82;6.47;;;;;;;17.55;96.46;94385.38;5068003;28;20294;-74
2022/05/29 04:16:43;;;;;;;12.48;6.82;;;;;;;17.18;95.27;94387.16;5067539;28;20229;-72
2022/05/29 04:19:10;;;;;;;8.13;5.75;;;;;;;16.98;95.59;94369.75;5068361;28;20318;-72
2022/05/29 04:21:38;;;;;;;9.73;6.38;;;;;;;17.17;94.51;94382.13;5067585;28;20198;-72
2022/05/29 04:24:06;;;;;;;10.88;6.05;;;;;;;17.09;94.02;94382.63;5067975;28;20716;-71
2022/05/29 04:26:33;;;;;;;13.98;5.72;;;;;;;17.05;94.86;94383.00;5067793;28;20205;-73
2022/05/29 04:29:01;;;;;;;5.97;5.25;;;;;;;17.29;93.76;94373.56;5067913;28;20284;-73
2022/05/29 04:31:27;;;;;;;7.00;5.43;;;;;;;17.65;93.00;94386.38;5067475;28;20236;-73
2022/05/29 04:33:53;;;;;;;14.85;5.35;;;;;;;18.02;89.54;94379.41;5067624;28;20233;-71
2022/05/29 04:36:20;;;;;;;9.30;5.35;;;;;;;18.32;86.87;94385.75;5065907;28;20275;-72
2022/05/29 04:38:48;;;;;;;9.20;5.35;;;;;;;18.36;86.55;94392.31;5068297;28;20206;-74
2022/05/29 04:41:15;;;;;;;10.60;4.80;;;;;;;18.65;85.45;94393.56;5067547;28;20202;-74
2022/05/29 04:43:42;;;;;;;11.90;4.45;;;;;;;19.26;84.37;94396.59;5068000;28;20366;-72
2022/05/29 04:46:09;;;;;;;8.20;4.63;;;;;;;19.48;81.94;94397.47;5067167;28;20208;-72
2022/05/29 04:48:35;;;;;;;9.00;5.38;;;;;;;19.42;81.66;94408.25;5066874;28;20213;-72
2022/05/29 04:51:06;;;;;;;9.73;4.85;;;;;;;19.41;80.07;94396.31;5066766;28;20231;-72
2022/05/29 04:53:34;;;;;;;9.10;5.78;;;;;;;19.55;81.42;94402.03;5067645;28;20298;-72
2022/05/29 04:56:02;;;;;;;9.35;5.35;;;;;;;19.58;80.30;94399.22;5067217;28;20209;-73
2022/05/29 04:58:30;;;;;;;4.97;4.35;;;;;;;20.00;79.77;94399.31;5067259;28;20251;-72
2022/05/29 05:00:58;;;;;;;10.10;5.35;;;;;;;19.99;78.68;94384.78;5067857;28;20197;-72
2022/05/29 05:03:24;;;;;;;7.30;5.15;;;;;;;20.08;77.71;94396.91;5067020;28;20292;-71
2022/05/29 05:05:51;;;;;;;10.80;4.90;;;;;;;20.23;77.74;94392.28;5065618;28;20661;-71
2022/05/29 05:08:18;;;;;;;9.75;4.80;;;;;;;20.03;78.33;94386.19;5066632;28;20209;-74
2022/05/29 05:10:45;;;;;;;8.15;4.95;;;;;;;20.24;79.28;94375.84;5066910;28;20629;-73
2022/05/29 05:13:13;;;;;;;6.55;4.47;;;;;;;19.92;77.79;94386.22;5067063;28;20275;-74
2022/05/29 05:15:40;;;;;;;7.95;4.88;;;;;;;19.97;77.49;94389.25;5066746;28;20633;-73
2022/05/29 05:18:08;;;;;;;8.32;4.88;;;;;;;19.70;78.83;94387.94;5066325;28;20738;-72
2022/05/29 05:20:35;;;;;;;12.93;5.32;;;;;;;19.58;77.86;94398.38;5067214;28;20194;-74
2022/05/29 05:23:02;;;;;;;11.13;4.82;;;;;;;19.31;78.51;94396.19;5066192;28;20212;-74
2022/05/29 05:25:28;;;;;;;10.02;4.65;;;;;;;19.78;78.07;94381.38;5067241;28;20621;-74
2022/05/29 05:27:55;;;;;;;9.43;4.00;;;;;;;20.66;75.84;94384.41;5065846;28;20631;-74
2022/05/29 05:30:24;;;;;;;10.50;3.97;;;;;;;20.67;73.57;94380.88;5066510;28;20233;-75
2022/05/29 05:32:51;;;;;;;7.78;4.35;;;;;;;20.32;75.00;94383.75;5065916;28;20923;-73
2022/05/29 05:35:17;;;;;;;5.53;4.07;;;;;;;20.02;76.20;94387.13;5066894;28;20226;-73
2022/05/29 05:37:44;;;;;;;8.68;4.20;;;;;;;19.60;76.70;94387.03;5066202;28;20263;-73
2022/05/29 05:40:14;;;;;;;10.82;3.58;;;;;;;19.67;77.85;94385.59;5066600;28;20266;-72
2022/05/29 05:42:40;;;;;;;6.28;4.15;;;;;;;20.17;76.10;94377.28;5066098;28;20627;-73
2022/05/29 05:45:10;;;;;;;7.47;5.00;;;;;;;20.22;75.59;94381.16;5065323;28;20680;-71
2022/05/29 05:47:39;;;;;;;7.85;3.30;;;;;;;20.07;76.27;94387.53;5065123;28;20198;-71
2022/05/29 05:50:07;;;;;;;18.10;4.13;;;;;;;19.86;76.95;94389.28;5066782;28;20201;-73
2022/05/29 05:52:36;;;;;;;20.70;4.43;;;;;;;20.21;74.99;94387.25;5065828;28;20210;-74
2022/05/29 05:55:04;;;;;;;12.15;4.15;;;;;;;20.23;75.93;94393.09;5066511;28;20233;-73
2022/05/29 05:57:31;;;;;;;6.18;5.00;;;;;;;20.07;76.86;94378.97;5065121;28;20209;-73
2022/05/29 05:59:57;;;;;;;14.75;5.10;;;;;;;20.47;76.50;94371.41;5066141;28;20202;-73
2022/05/29 06:02:24;;;;;;;10.32;5.15;;;;;;;20.31;76.09;94367.47;5065321;28;20696;-72
2022/05/29 06:04:52;;;;;;;8.20;4.25;;;;;;;20.35;75.90;94368.84;5066826;28;20189;-72
2022/05/29 06:07:19;;;;;;;4.85;4.28;;;;;;;21.37;72.44;94383.47;5065996;28;20220;-73
2022/05/29 06:09:46;;;;;;;5.65;4.28;;;;;;;22.39;68.40;94387.31;5066275;28;20239;-74
2022/05/29 06:12:12;;;;;;;8.50;5.30;;;;;;;23.29;65.10;94396.31;5065441;28;20625;-72
2022/05/29 06:14:39;;;;;;;11.27;4.13;;;;;;;23.78;62.77;94383.91;5065587;28;20229;-73
2022/05/29 06:17:06;;;;;;;7.75;3.60;;;;;;;23.67;64.25;94384.94;5064784;28;20688;-74
2022/05/29 06:19:33;;;;;;;7.68;3.88;;;;;;;24.04;62.48;94366.63;5065962;28;20630;-73
2022/05/29 06:22:01;;;;;;;6.22;5.00;;;;;;;24.44;61.88;94354.94;5065512;28;20202;-73
2022/05/29 06:24:28;;;;;;;8.45;3.58;;;;;;;24.50;60.66;94364.75;5064801;28;20283;-74
2022/05/29 06:26:58;;;;;;;11.10;4.28;;;;;;;23.40;63.34;94359.81;5064902;28;20261;-72
2022/05/29 06:29:25;;;;;;;9.60;3.88;;;;;;;22.31;66.67;94365.66;5066051;28;20202;-74
2022/05/29 06:31:53;;;;;;;10.40;3.45;;;;;;;22.61;66.27;94365.47;5065431;28;20646;-74
2022/05/29 06:34:20;;;;;;;7.45;3.50;;;;;;;23.51;62.44;94349.22;5065408;28;20316;-73
2022/05/29 06:36:47;;;;;;;11.18;3.67;;;;;;;22.98;62.91;94347.38;5065298;28;20201;-74
2022/05/29 06:39:15;;;;;;;7.32;3.30;;;;;;;22.70;64.52;94340.50;5065424;28;21474;-74
2022/05/29 06:41:43;;;;;;;11.55;3.67;;;;;;;22.40;64.61;94333.78;5065241;28;20258;-73
2022/05/29 06:44:10;;;;;;;12.05;3.47;;;;;;;22.80;63.08;94337.88;5066187;28;20251;-73
2022/05/29 06:46:37;;;;;;;14.75;4.20;;;;;;;22.93;63.04;94334.03;5064895;28;20698;-73
2022/05/29 06:49:04;;;;;;;5.10;3.22;;;;;;;22.70;64.31;94343.91;5065662;28;20202;-72
2022/05/29 06:51:30;;;;;;;7.72;3.47;;;;;;;22.75;63.59;94346.09;5065802;28;20781;-73
2022/05/29 06:53:57;;;;;;;9.35;3.92;;;;;;;23.05;62.53;94338.03;5065211;28;20233;-72
2022/05/29 06:56:26;;;;;;;7.45;3.33;;;;;;;23.46;60.78;94341.09;5066129;28;20228;-74
2022/05/29 06:58:54;;;;;;;9.88;3.75;;;;;;;23.29;60.98;94339.28;5069441;28;20206;-73
2022/05/29 07:07:01;;;;;;;9.77;3.85;;;;;;;23.92;59.94;94340.09;5068503;28;20208;-73
2022/05/29 07:09:29;;;;;;;5.53;3.65;;;;;;;23.86;59.34;94332.91;5069275;28;20281;-73
2022/05/29 07:12:04;;;;;;;8.02;3.25;;;;;;;23.89;59.58;94327.41;5069218;28;20197;-74
2022/05/29 07:14:31;;;;;;;5.43;2.85;;;;;;;23.95;58.84;94318.22;5069569;28;20442;-74
2022/05/29 07:16:58;;;;;;;6.35;2.72;;;;;;;24.35;59.41;94323.72;5068130;28;20198;-73
2022/05/29 07:19:28;;;;;;;9.10;3.67;;;;;;;24.24;57.79;94323.16;5069792;28;20201;-73
2022/05/29 07:21:58;;;;;;;9.52;2.78;;;;;;;24.19;59.38;94318.41;5069054;28;20209;-73
2022/05/29 07:24:26;;;;;;;9.25;3.10;;;;;;;24.10;58.03;94306.31;5068629;28;21580;-73
2022/05/29 07:26:54;;;;;;;4.90;2.83;;;;;;;24.10;58.71;94321.91;5068138;28;20201;-74
2022/05/29 07:29:22;;;;;;;6.25;3.53;;;;;;;23.96;58.82;94333.66;5068696;28;20292;-74
2022/05/29 07:31:51;;;;;;;9.90;3.75;;;;;;;23.78;59.08;94326.81;5068850;28;20209;-73
2022/05/29 07:34:18;;;;;;;12.20;4.03;;;;;;;23.84;59.34;94321.03;5069336;28;21186;-74
2022/05/29 07:36:45;;;;;;;11.23;3.00;;;;;;;23.53;58.00;94331.78;5068398;28;20292;-75
2022/05/29 07:39:12;;;;;;;12.30;4.25;;;;;;;23.51;59.81;94312.13;5066442;28;20194;-73
2022/05/29 07:44:26;;;;;;;9.45;3.38;;;;;;;24.01;57.93;94312.41;5048630;28;20220;-72
2022/05/29 07:46:53;;;;;;;8.45;2.67;;;;;;;23.55;58.67;94327.25;5066554;28;20218;-71
2022/05/29 07:49:21;;;;;;;6.47;3.80;;;;;;;23.73;59.72;94322.91;5067340;28;20202;-72
2022/05/29 07:51:49;;;;;;;5.90;2.90;;;;;;;23.65;59.18;94324.59;5067367;28;20206;-73
2022/05/29 07:54:16;;;;;;;14.98;3.83;;;;;;;23.57;58.93;94319.34;5067783;28;20287;-73
2022/05/29 07:56:42;;;;;;;10.25;3.47;;;;;;;23.35;59.48;94325.75;5067613;28;20205;-73
2022/05/29 07:59:10;;;;;;;6.95;3.00;;;;;;;23.53;59.42;94320.59;5065713;28;20206;-73
2022/05/29 08:01:39;;;;;;;8.43;3.15;;;;;;;23.67;59.43;94313.13;5065318;28;20280;-74
2022/05/29 08:04:05;;;;;;;7.15;2.80;;;;;;;23.65;59.07;94315.06;5067251;28;20193;-73
2022/05/29 08:06:32;;;;;;;7.15;3.00;;;;;;;23.84;59.14;94303.69;5066639;28;20202;-74
2022/05/29 08:08:59;;;;;;;11.95;3.08;;;;;;;24.15;58.20;94304.09;5064662;28;22043;-74
2022/05/29 08:11:25;;;;;;;6.40;3.33;;;;;;;24.24;58.77;94304.97;5065711;28;20202;-73
2022/05/29 08:13:53;;;;;;;6.72;3.22;;;;;;;24.10;59.85;94293.34;5068118;28;20205;-74
2022/05/29 08:16:20;;;;;;;9.65;3.15;;;;;;;24.43;59.71;94289.22;5068152;28;20292;-74
2022/05/29 08:18:48;;;;;;;7.32;3.22;;;;;;;24.72;58.26;94288.88;5068040;28;20212;-73
2022/05/29 08:21:16;;;;;;;5.78;3.10;;;;;;;24.81;57.69;94281.91;5066975;28;20202;-73
2022/05/29 08:30:37;;;;;;;5.45;2.95;;;;;;;24.77;56.45;94281.41;5067162;28;21254;-73
2022/05/29 08:31:54;;;;;;;5.95;2.85;;;;;;;24.89;56.43;94284.53;5041653;28;20201;-74
2022/05/29 08:34:22;;;;;;;10.30;3.30;;;;;;;25.01;56.16;94281.53;5067687;28;20287;-73
2022/05/29 08:36:48;;;;;;;10.85;3.33;;;;;;;25.05;55.16;94272.44;5067174;28;20259;-74
2022/05/29 08:39:15;;;;;;;8.65;3.22;;;;;;;25.18;54.73;94273.78;5067175;28;20206;-73
2022/05/29 08:41:48;;;;;;;13.90;3.80;;;;;;;25.47;54.66;94268.97;5066522;28;20630;-73
2022/05/29 08:44:18;;;;;;;14.63;4.20;;;;;;;25.60;54.22;94273.69;5066836;28;20692;-73
2022/05/29 08:46:49;;;;;;;9.43;3.35;;;;;;;25.43;52.60;94257.25;5066329;28;20197;-73
2022/05/29 08:49:18;;;;;;;13.07;3.90;;;;;;;25.59;53.20;94257.25;5067788;28;20326;-74
2022/05/29 08:52:11;;;;;;;8.38;2.92;;;;;;;25.43;52.52;94258.06;5066938;28;20282;-72
2022/05/29 08:54:48;;;;;;;10.18;3.55;;;;;;;25.67;52.66;94254.69;5066670;28;20257;-73
2022/05/29 08:57:30;;;;;;;11.82;3.22;;;;;;;25.92;51.22;94249.50;5066726;28;20202;-73
2022/05/29 08:59:59;;;;;;;6.28;2.72;;;;;;;26.09;50.31;94248.47;5067173;28;20205;-72
2022/05/29 09:02:40;;;;;;;9.40;3.08;;;;;;;25.88;49.87;94261.19;5066116;28;20205;-74
2022/05/29 09:05:12;;;;;;;10.52;2.90;;;;;;;25.68;50.31;94245.09;5066546;28;20202;-73
2022/05/29 09:07:42;;;;;;;14.35;3.42;;;;;;;25.35;50.49;94245.03;5066316;28;20680;-74
2022/05/29 09:10:14;;;;;;;9.80;3.75;;;;;;;25.33;49.68;94235.78;5067455;28;20204;-74
2022/05/29 09:12:46;;;;;;;9.43;3.63;;;;;;;25.33;49.71;94243.56;5065150;28;20193;-73
2022/05/29 09:15:16;;;;;;;9.60;3.20;;;;;;;25.36;49.65;94245.84;5065372;28;20225;-72
2022/05/29 09:17:50;;;;;;;17.35;3.72;;;;;;;25.18;49.52;94227.81;5064391;28;20283;-74
2022/05/29 09:20:28;;;;;;;8.30;3.40;;;;;;;25.17;49.94;94230.56;5064988;28;20194;-72
2022/05/29 09:22:58;;;;;;;10.52;2.60;;;;;;;25.30;50.18;94217.88;5064370;28;20206;-71
2022/05/29 09:25:30;;;;;;;5.80;2.78;;;;;;;25.36;49.33;94212.03;5065652;28;20221;-72
2022/05/29 09:28:01;;;;;;;6.25;3.33;;;;;;;25.21;49.28;94224.88;5066314;28;20202;-74
2022/05/29 09:30:29;;;;;;;10.55;2.83;;;;;;;24.92;49.97;94229.66;5066731;28;20206;-72
2022/05/29 09:32:58;;;;;;;8.65;3.33;;;;;;;24.98;50.26;94211.69;5065099;28;20205;-71
2022/05/29 09:35:32;;;;;;;6.93;3.80;;;;;;;25.27;50.11;94202.59;5064675;28;20310;-71
2022/05/29 09:38:07;;;;;;;12.18;3.00;;;;;;;25.54;50.23;94197.09;5064805;28;20197;-72
2022/05/29 09:40:39;;;;;;;11.93;4.05;;;;;;;25.63;49.82;94201.34;5064031;28;20212;-73
2022/05/29 09:43:17;;;;;;;9.63;3.10;;;;;;;25.34;50.81;94199.19;5064749;28;20267;-73
2022/05/29 09:45:44;;;;;;;14.93;4.65;;;;;;;25.50;50.54;94195.78;5064303;28;20232;-73
2022/05/29 09:51:19;;;;;;;8.23;3.35;;;;;;;25.44;51.08;94186.03;5065102;28;20586;-72
2022/05/29 09:53:53;;;;;;;8.60;4.55;;;;;;;25.17;50.12;94183.75;5064723;28;20255;-72
2022/05/29 09:56:27;;;;;;;11.43;5.07;;;;;;;25.37;50.34;94183.28;5065187;28;20221;-72
2022/05/29 09:58:58;;;;;;;9.68;4.15;;;;;;;25.44;50.59;94180.84;5066646;28;20357;-72
2022/05/29 10:01:32;;;;;;;12.82;3.40;;;;;;;25.57;51.03;94172.53;5065188;28;20206;-72
2022/05/29 10:04:02;;;;;;;6.30;4.07;;;;;;;25.58;51.59;94177.56;5066202;28;20205;-74
2022/05/29 10:06:32;;;;;;;12.65;4.10;;;;;;;25.62;51.31;94163.28;5065273;28;20222;-72
2022/05/29 10:09:13;;;;;;;9.77;3.42;;;;;;;25.65;51.67;94175.97;5065593;28;20216;-73
2022/05/29 10:11:43;;;;;;;12.20;3.85;;;;;;;25.92;51.21;94163.59;5065496;28;20643;-73
2022/05/29 10:14:26;;;;;;;6.15;3.50;;;;;;;26.13;51.44;94166.44;5066178;28;20209;-73
2022/05/29 10:16:55;;;;;;;11.00;3.67;;;;;;;26.27;51.55;94163.13;5065599;28;20310;-74
2022/05/29 10:19:37;;;;;;;8.10;4.95;;;;;;;26.32;50.32;94162.66;5065764;28;20197;-73
2022/05/29 10:22:12;;;;;;;10.10;4.10;;;;;;;26.20;50.83;94162.22;5065499;28;20207;-74
2022/05/29 10:24:41;;;;;;;8.95;3.88;;;;;;;25.88;52.14;94162.28;5065605;28;20788;-72
2022/05/29 10:27:14;;;;;;;9.50;3.97;;;;;;;25.90;52.46;94155.94;5065285;28;20553;-73
2022/05/29 10:29:43;;;;;;;13.10;3.55;;;;;;;25.63;52.32;94157.13;5066257;28;20202;-73
2022/05/29 10:32:20;;;;;;;8.57;3.75;;;;;;;25.47;53.06;94149.31;5065180;28;20202;-72
2022/05/29 10:34:47;;;;;;;8.25;4.00;;;;;;;25.49;53.64;94151.75;5064298;28;20314;-73
2022/05/29 10:37:36;;;;;;;12.32;3.65;;;;;;;25.41;53.71;94148.16;5065648;28;20216;-72
2022/05/29 10:40:18;;;;;;;11.07;3.83;;;;;;;25.37;53.80;94154.66;5066008;28;20206;-73
2022/05/29 10:42:48;;;;;;;17.08;4.15;;;;;;;25.28;53.73;94154.81;5065804;28;20730;-73
2022/05/29 10:45:21;;;;;;;11.07;5.18;;;;;;;25.25;53.77;94155.13;5065316;28;20209;-73
2022/05/29 10:48:26;;;;;;;14.55;4.57;;;;;;;25.04;54.66;94168.59;5065567;28;20201;-73
2022/05/29 10:51:10;;;;;;;6.55;3.30;;;;;;;25.03;53.94;94161.78;5038275;28;20208;-73
2022/05/29 10:53:51;;;;;;;11.13;3.75;;;;;;;25.01;54.18;94154.16;5065090;28;20206;-73
2022/05/29 10:56:30;;;;;;;8.60;4.32;;;;;;;24.67;54.69;94146.44;5064311;28;20240;-73
2022/05/29 10:59:22;;;;;;;17.75;3.83;;;;;;;24.39;56.53;94143.28;5065585;28;20680;-73
2022/05/29 11:05:06;;;;;;;10.57;3.92;;;;;;;24.57;56.81;94139.75;5063703;28;20217;-74
2022/05/29 11:07:46;;;;;;;16.08;4.40;;;;;;;24.44;56.50;94113.44;5063103;28;20251;-73
2022/05/29 11:10:39;;;;;;;6.75;3.25;;;;;;;24.46;56.60;94127.06;5063475;28;20284;-73
2022/05/29 11:13:23;;;;;;;7.95;3.78;;;;;;;24.63;56.14;94128.72;5063466;28;20251;-72
2022/05/29 11:16:01;;;;;;;18.60;5.38;;;;;;;24.61;56.73;94121.09;5062817;28;20302;-74
2022/05/29 11:19:08;;;;;;;8.13;3.65;;;;;;;24.97;56.28;94111.28;5063123;28;20243;-74
2022/05/29 11:21:46;;;;;;;14.77;3.78;;;;;;;24.92;55.86;94120.50;5064191;28;20665;-72
2022/05/29 11:24:30;;;;;;;8.07;3.13;;;;;;;24.65;55.53;94103.41;5064970;28;20309;-73
2022/05/29 11:27:05;;;;;;;7.30;3.10;;;;;;;24.63;56.50;94100.16;5063048;28;20665;-73
2022/05/29 11:29:53;;;;;;;10.75;4.13;;;;;;;24.79;56.38;94079.38;5063382;28;20202;-74
2022/05/29 11:32:26;;;;;;;5.53;3.50;;;;;;;25.05;55.83;94061.06;5062969;28;20244;-72
2022/05/29 11:35:09;;;;;;;10.55;4.25;;;;;;;25.34;56.40;94053.56;5061484;28;20234;-73
2022/05/29 11:37:56;;;;;;;14.13;4.47;;;;;;;25.61;54.95;94044.56;5063061;28;20193;-74
2022/05/29 11:40:28;;;;;;;9.85;4.35;;;;;;;25.61;55.33;94044.56;5064699;28;20282;-73
2022/05/29 11:43:00;;;;;;;10.27;3.40;;;;;;;25.35;55.25;94051.78;5065528;28;20250;-74
2022/05/29 11:51:10;;;;;;;8.10;3.67;;;;;;;25.57;55.57;94025.06;5067401;28;20287;-75
2022/05/29 11:53:43;;;;;;;13.20;3.83;;;;;;;25.65;54.80;94025.06;5071441;28;20297;-75
2022/05/29 11:56:16;;;;;;;9.90;4.35;;;;;;;25.29;55.42;94031.63;5067590;28;20253;-72
2022/05/29 11:58:47;;;;;;;6.05;3.63;;;;;;;25.20;56.38;94006.63;5067685;28;20289;-72
2022/05/29 12:01:21;;;;;;;6.22;3.92;;;;;;;25.37;55.63;94003.00;5068155;28;20275;-73
2022/05/29 12:03:54;;;;;;;13.48;5.05;;;;;;;25.34;56.00;93985.94;5067803;28;20708;-74
2022/05/29 12:06:24;;;;;;;10.88;3.72;;;;;;;25.50;55.37;94008.47;5066713;28;21103;-74
2022/05/29 12:08:57;;;;;;;13.38;4.38;;;;;;;25.41;56.22;93999.09;5068388;28;20205;-72
2022/05/29 12:11:35;;;;;;;8.18;4.57;;;;;;;25.49;55.99;93991.25;5067783;28;20255;-72
2022/05/29 12:14:06;;;;;;;8.70;4.60;;;;;;;25.63;56.15;93993.19;5068497;28;20614;-73
2022/05/29 12:16:37;;;;;;;10.25;4.68;;;;;;;25.54;56.20;93983.75;5067592;28;20240;-71
2022/05/29 12:19:11;;;;;;;8.77;4.57;;;;;;;25.24;56.96;93989.72;5066188;28;20193;-72